createdAt,value
2019-01-26T00:00:16.926Z,56.97
2019-01-26T00:03:22.003Z,50.47
2019-01-26T00:06:25.225Z,50.67
2019-01-26T00:09:28.489Z,59.13
2019-01-26T00:12:31.623Z,47.03
2019-01-26T00:15:34.972Z,50.13
2019-01-26T00:18:38.110Z,57.77
2019-01-26T00:21:41.348Z,59.00
2019-01-26T00:24:44.397Z,52.90
2019-01-26T00:27:47.634Z,54.47
2019-01-26T00:30:50.787Z,56.80
2019-01-26T00:33:54.130Z,51.97
2019-01-26T00:36:57.181Z,50.30
2019-01-26T00:40:00.326Z,49.50
2019-01-26T00:43:03.363Z,52.47
2019-01-26T00:46:06.706Z,54.43
2019-01-26T00:49:09.750Z,54.13
2019-01-26T00:52:13.270Z,58.27
2019-01-26T00:55:16.818Z,58.87
2019-01-26T00:58:23.705Z,60.00
2019-01-26T01:01:25.706Z,47.87
2019-01-26T01:04:29.862Z,55.40
2019-01-26T01:07:33.019Z,61.57
2019-01-26T01:10:36.287Z,66.00
2019-01-26T01:13:39.410Z,55.67
2019-01-26T01:16:42.543Z,59.67
2019-01-26T01:19:45.593Z,62.77
2019-01-26T01:22:48.759Z,60.13
2019-01-26T01:25:51.986Z,57.27
2019-01-26T01:28:55.115Z,56.53
2019-01-26T01:31:58.170Z,66.87
2019-01-26T01:35:01.305Z,65.70
2019-01-26T01:38:04.559Z,65.13
2019-01-26T01:41:07.690Z,72.30
2019-01-26T01:44:10.847Z,60.20
2019-01-26T01:47:13.977Z,68.87
2019-01-26T01:50:17.441Z,63.53
2019-01-26T01:53:20.690Z,78.17
2019-01-26T01:56:23.730Z,71.53
2019-01-26T01:59:26.974Z,64.87
2019-01-26T02:02:30.118Z,81.97
2019-01-26T02:05:33.430Z,65.03
2019-01-26T02:08:36.610Z,78.87
2019-01-26T02:11:40.217Z,78.77
2019-01-26T02:14:43.409Z,76.00
2019-01-26T02:17:46.510Z,78.20
2019-01-26T02:20:49.594Z,79.27
2019-01-26T02:23:52.797Z,80.90
2019-01-26T02:26:55.987Z,81.33
2019-01-26T02:29:59.182Z,85.70
2019-01-26T02:33:02.277Z,74.63
2019-01-26T02:36:05.473Z,85.47
2019-01-26T02:39:08.667Z,94.13
2019-01-26T02:42:11.858Z,76.60
2019-01-26T02:45:15.261Z,90.77
2019-01-26T02:48:18.458Z,71.50
2019-01-26T02:51:21.650Z,83.37
2019-01-26T02:54:24.745Z,81.90
2019-01-26T02:57:27.839Z,89.43
2019-01-26T03:00:31.035Z,83.43
2019-01-26T03:03:34.226Z,96.63
2019-01-26T03:06:37.321Z,87.57
2019-01-26T03:09:40.409Z,91.90
2019-01-26T03:12:43.608Z,83.30
2019-01-26T03:15:46.808Z,88.03
2019-01-26T03:18:50.034Z,78.90
2019-01-26T03:21:53.086Z,89.80
2019-01-26T03:24:56.349Z,77.97
2019-01-26T03:27:59.485Z,83.80
2019-01-26T03:31:03.952Z,92.70
2019-01-26T03:34:08.681Z,83.63
2019-01-26T03:37:12.077Z,85.30
2019-01-26T03:40:16.934Z,91.60
2019-01-26T03:43:20.110Z,84.00
2019-01-26T03:46:23.154Z,78.47
2019-01-26T03:49:26.286Z,73.40
2019-01-26T03:52:29.353Z,86.60
2019-01-26T03:55:32.982Z,83.77
2019-01-26T03:58:37.163Z,82.27
2019-01-26T04:01:40.503Z,86.40
2019-01-26T04:04:43.652Z,77.93
2019-01-26T04:07:46.894Z,83.03
2019-01-26T04:10:49.948Z,88.10
2019-01-26T04:13:53.111Z,79.60
2019-01-26T04:16:56.230Z,86.20
2019-01-26T04:19:59.469Z,83.77
2019-01-26T04:23:02.622Z,86.90
2019-01-26T04:26:05.782Z,74.87
2019-01-26T04:29:08.818Z,81.87
2019-01-26T04:32:12.147Z,90.23
2019-01-26T04:35:15.611Z,79.33
2019-01-26T04:38:18.754Z,84.17
2019-01-26T04:41:21.791Z,73.40
2019-01-26T04:44:24.949Z,82.03
2019-01-26T04:47:31.041Z,67.73
2019-01-26T04:50:33.270Z,79.27
2019-01-26T04:53:36.414Z,70.23
2019-01-26T04:56:39.579Z,74.80
2019-01-26T04:59:42.701Z,71.70
2019-01-26T05:02:47.097Z,82.07
2019-01-26T05:05:50.121Z,76.53
2019-01-26T05:08:53.579Z,75.83
2019-01-26T05:11:56.611Z,74.60
2019-01-26T05:14:59.744Z,75.00
2019-01-26T05:18:02.894Z,73.67
2019-01-26T05:21:06.430Z,82.93
2019-01-26T05:24:09.490Z,76.00
2019-01-26T05:27:12.754Z,78.13
2019-01-26T05:30:34.012Z,71.33
2019-01-26T05:33:37.250Z,72.77
2019-01-26T05:36:40.334Z,73.53
2019-01-26T05:39:43.601Z,77.80
2019-01-26T05:42:46.683Z,75.80
2019-01-26T05:45:49.786Z,67.47
2019-01-26T05:48:52.942Z,73.63
2019-01-26T05:51:56.073Z,78.63
2019-01-26T05:54:59.128Z,68.43
2019-01-26T05:58:02.374Z,77.17
2019-01-26T06:01:05.624Z,66.20
2019-01-26T06:04:08.850Z,71.90
2019-01-26T06:07:11.910Z,75.03
2019-01-26T06:10:15.003Z,68.70
2019-01-26T06:13:18.095Z,77.43
2019-01-26T06:16:21.291Z,67.20
2019-01-26T06:19:24.383Z,66.87
2019-01-26T06:22:27.478Z,78.90
2019-01-26T06:25:30.667Z,78.40
2019-01-26T06:28:33.866Z,76.80
2019-01-26T06:31:36.957Z,71.63
2019-01-26T06:34:40.137Z,66.43
2019-01-26T06:37:43.244Z,78.20
2019-01-26T06:40:46.338Z,81.27
2019-01-26T06:43:49.429Z,77.63
2019-01-26T06:46:52.525Z,70.80
2019-01-26T06:49:55.713Z,75.77
2019-01-26T06:52:58.924Z,76.87
2019-01-26T06:56:02.106Z,81.63
2019-01-26T06:59:05.305Z,91.43
2019-01-26T07:02:08.398Z,88.40
2019-01-26T07:05:33.838Z,81.63
2019-01-26T07:08:37.008Z,82.27
2019-01-26T07:11:40.102Z,84.07
2019-01-26T07:14:43.295Z,88.13
2019-01-26T07:17:46.596Z,82.50
2019-01-26T07:20:49.886Z,87.27
2019-01-26T07:23:53.095Z,87.07
2019-01-26T07:26:56.179Z,92.87
2019-01-26T07:29:59.374Z,81.47
2019-01-26T07:33:02.611Z,108.57
2019-01-26T07:36:05.763Z,104.47
2019-01-26T07:39:09.678Z,111.77
2019-01-26T07:42:12.912Z,91.70
2019-01-26T07:45:16.166Z,97.83
2019-01-26T07:48:19.514Z,102.67
2019-01-26T07:51:22.554Z,107.07
2019-01-26T07:54:25.688Z,107.17
2019-01-26T07:57:28.946Z,118.40
2019-01-26T08:00:32.091Z,99.43
2019-01-26T08:03:35.135Z,106.43
2019-01-26T08:06:38.682Z,100.90
2019-01-26T08:09:41.829Z,99.90
2019-01-26T08:12:44.963Z,91.77
2019-01-26T08:15:48.018Z,106.33
2019-01-26T08:18:51.250Z,108.17
2019-01-26T08:21:54.406Z,111.00
2019-01-26T08:24:58.575Z,161.40
2019-01-26T08:28:01.821Z,122.93
2019-01-26T08:31:05.159Z,97.13
2019-01-26T08:34:08.433Z,96.33
2019-01-26T08:37:11.646Z,120.10
2019-01-26T08:40:15.726Z,117.47
2019-01-26T08:43:18.969Z,136.03
2019-01-26T08:46:22.014Z,110.40
2019-01-26T08:49:25.246Z,90.87
2019-01-26T08:52:28.402Z,115.00
2019-01-26T08:55:31.644Z,97.57
2019-01-26T08:58:35.818Z,101.23
2019-01-26T09:01:39.055Z,112.20
2019-01-26T09:04:43.846Z,103.13
2019-01-26T09:07:47.194Z,108.07
2019-01-26T09:10:50.239Z,112.47
2019-01-26T09:13:53.475Z,114.13
2019-01-26T09:16:56.626Z,111.93
2019-01-26T09:19:59.790Z,108.57
2019-01-26T09:23:03.023Z,97.67
2019-01-26T09:26:06.230Z,107.60
2019-01-26T09:29:09.411Z,101.43
2019-01-26T09:32:12.502Z,106.37
2019-01-26T09:35:15.801Z,111.23
2019-01-26T09:38:18.896Z,114.47
2019-01-26T09:41:21.982Z,115.37
2019-01-26T09:44:25.078Z,122.03
2019-01-26T09:47:28.270Z,112.40
2019-01-26T09:50:31.470Z,135.77
2019-01-26T09:53:34.574Z,106.43
2019-01-26T09:56:37.758Z,120.63
2019-01-26T09:59:40.899Z,106.37
2019-01-26T10:02:44.050Z,114.67
2019-01-26T10:05:47.241Z,119.00
2019-01-26T10:08:50.336Z,103.90
2019-01-26T10:11:53.526Z,121.00
2019-01-26T10:14:56.622Z,117.33
2019-01-26T10:17:59.918Z,109.53
2019-01-26T10:21:03.115Z,139.53
2019-01-26T10:24:06.306Z,131.00
2019-01-26T10:27:09.403Z,136.93
2019-01-26T10:30:19.427Z,160.93
2019-01-26T10:33:22.650Z,155.13
2019-01-26T10:36:47.765Z,163.00
2019-01-26T10:39:51.355Z,164.43
2019-01-26T10:42:54.553Z,184.40
2019-01-26T10:46:03.587Z,156.80
2019-01-26T10:49:06.790Z,157.37
2019-01-26T10:52:10.027Z,189.87
2019-01-26T10:55:15.529Z,167.77
2019-01-26T10:58:18.626Z,170.83
2019-01-26T11:01:22.946Z,197.97
2019-01-26T11:04:26.117Z,175.50
2019-01-26T11:07:29.132Z,154.70
2019-01-26T11:10:33.122Z,138.47
2019-01-26T11:13:36.238Z,170.57
2019-01-26T11:16:39.453Z,136.43
2019-01-26T11:19:42.629Z,156.73
2019-01-26T11:22:47.641Z,185.93
2019-01-26T11:25:50.863Z,162.97
2019-01-26T11:28:54.206Z,153.77
2019-01-26T11:31:57.350Z,166.77
2019-01-26T11:35:00.486Z,189.73
2019-01-26T11:38:05.385Z,237.23
2019-01-26T11:41:08.650Z,252.17
2019-01-26T11:44:11.773Z,197.10
2019-01-26T11:47:17.633Z,178.43
2019-01-26T11:50:28.690Z,175.57
2019-01-26T11:53:32.258Z,217.67
2019-01-26T11:56:54.742Z,173.30
2019-01-26T12:00:15.807Z,141.57
2019-01-26T12:03:41.582Z,101.77
2019-01-26T12:06:51.995Z,89.70
2019-01-26T12:09:55.054Z,80.23
2019-01-26T12:12:59.326Z,73.03
2019-01-26T12:16:02.570Z,53.53
2019-01-26T12:19:05.706Z,49.20
2019-01-26T12:22:08.857Z,52.83
2019-01-26T12:25:12.302Z,45.80
2019-01-26T12:28:15.453Z,43.63
2019-01-26T12:31:18.702Z,45.27
2019-01-26T12:34:22.969Z,42.40
2019-01-26T12:37:26.206Z,42.53
2019-01-26T12:40:29.260Z,42.30
2019-01-26T12:43:32.606Z,40.73
2019-01-26T12:46:35.755Z,33.97
2019-01-26T12:49:39.102Z,34.80
2019-01-26T12:52:42.342Z,36.70
2019-01-26T12:55:46.676Z,42.80
2019-01-26T12:58:49.866Z,34.03
2019-01-26T13:01:53.178Z,36.10
2019-01-26T13:04:56.258Z,37.90
2019-01-26T13:07:59.394Z,37.23
2019-01-26T13:11:10.122Z,34.47
2019-01-26T13:14:14.342Z,40.03
2019-01-26T13:17:17.535Z,38.60
2019-01-26T13:20:20.732Z,38.17
2019-01-26T13:23:23.922Z,40.57
2019-01-26T13:26:27.019Z,40.50
2019-01-26T13:29:30.215Z,42.77
2019-01-26T13:32:33.450Z,39.63
2019-01-26T13:35:36.606Z,46.43
2019-01-26T13:38:39.698Z,52.87
2019-01-26T13:41:42.785Z,47.13
2019-01-26T13:44:45.986Z,45.87
2019-01-26T13:47:49.178Z,44.73
2019-01-26T13:50:52.274Z,43.13
2019-01-26T13:53:55.566Z,45.87
2019-01-26T13:56:58.665Z,48.73
2019-01-26T14:00:01.959Z,51.77
2019-01-26T14:03:05.361Z,42.47
2019-01-26T14:06:08.454Z,46.80
2019-01-26T14:09:11.646Z,42.23
2019-01-26T14:12:14.742Z,44.60
2019-01-26T14:15:18.046Z,42.43
2019-01-26T14:18:21.230Z,42.10
2019-01-26T14:21:25.635Z,30.67
2019-01-26T14:24:28.755Z,34.17
2019-01-26T14:27:31.942Z,31.57
2019-01-26T14:30:40.130Z,29.37
2019-01-26T14:33:43.249Z,27.17
2019-01-26T14:36:46.447Z,23.30
2019-01-26T14:39:49.679Z,27.43
2019-01-26T14:42:54.472Z,24.87
2019-01-26T14:45:59.671Z,19.43
2019-01-26T14:49:02.811Z,26.30
2019-01-26T14:52:05.947Z,21.20
2019-01-26T14:55:11.862Z,25.40
2019-01-26T14:58:15.028Z,23.77
2019-01-26T15:01:18.255Z,30.00
2019-01-26T15:04:21.486Z,21.43
2019-01-26T15:07:24.543Z,23.30
2019-01-26T15:10:27.723Z,23.43
2019-01-26T15:13:30.826Z,30.90
2019-01-26T15:16:33.966Z,17.30
2019-01-26T15:19:37.015Z,23.93
2019-01-26T15:22:40.269Z,15.73
2019-01-26T15:25:43.404Z,17.10
2019-01-26T15:28:46.634Z,19.23
2019-01-26T15:31:49.796Z,17.77
2019-01-26T15:34:53.138Z,17.00
2019-01-26T15:37:58.191Z,24.30
2019-01-26T15:41:01.155Z,26.10
2019-01-26T15:44:04.210Z,30.03
2019-01-26T15:47:07.471Z,23.97
2019-01-26T15:50:13.214Z,25.97
2019-01-26T15:53:16.286Z,36.37
2019-01-26T15:56:19.451Z,25.77
2019-01-26T15:59:22.587Z,20.43
2019-01-26T16:02:25.742Z,31.97
2019-01-26T16:05:28.947Z,27.73
2019-01-26T16:08:32.025Z,29.93
2019-01-26T16:11:35.190Z,28.63
2019-01-26T16:14:38.286Z,27.93
2019-01-26T16:17:41.617Z,21.27
2019-01-26T16:20:44.733Z,28.73
2019-01-26T16:23:47.938Z,37.50
2019-01-26T16:26:50.994Z,31.13
2019-01-26T16:29:54.258Z,36.77
2019-01-26T16:32:58.237Z,39.60
2019-01-26T16:36:01.546Z,21.83
2019-01-26T16:39:08.553Z,29.80
2019-01-26T16:42:12.134Z,23.97
2019-01-26T16:45:17.914Z,26.73
2019-01-26T16:48:22.098Z,29.30
2019-01-26T16:51:25.154Z,34.10
2019-01-26T16:54:28.302Z,31.07
2019-01-26T16:57:31.442Z,23.33
2019-01-26T17:01:01.098Z,28.20
2019-01-26T17:04:04.262Z,26.90
2019-01-26T17:07:07.597Z,22.90
2019-01-26T17:10:12.862Z,31.93
2019-01-26T17:13:17.187Z,31.47
2019-01-26T17:16:20.410Z,30.00
2019-01-26T17:19:24.882Z,25.40
2019-01-26T17:22:27.931Z,22.67
2019-01-26T17:25:31.198Z,26.77
2019-01-26T17:28:34.422Z,28.87
2019-01-26T17:31:37.661Z,32.73
2019-01-26T17:34:40.812Z,30.43
2019-01-26T17:37:43.979Z,34.33
2019-01-26T17:40:54.096Z,37.00
2019-01-26T17:43:52.963Z,38.27
2019-01-26T17:46:56.052Z,45.00
2019-01-26T17:49:59.246Z,40.87
2019-01-26T17:53:02.686Z,37.60
2019-01-26T17:56:06.866Z,43.93
2019-01-26T17:59:10.059Z,59.10
2019-01-26T18:02:13.258Z,49.93
2019-01-26T18:05:16.346Z,42.93
2019-01-26T18:08:19.442Z,40.70
2019-01-26T18:11:22.733Z,38.67
2019-01-26T18:14:25.830Z,39.87
2019-01-26T18:17:28.923Z,39.20
2019-01-26T18:20:32.221Z,42.93
2019-01-26T18:23:35.411Z,48.33
2019-01-26T18:26:38.514Z,45.97
2019-01-26T18:29:42.829Z,48.07
2019-01-26T18:32:46.030Z,44.30
2019-01-26T18:35:49.218Z,46.70
2019-01-26T18:38:52.315Z,43.03
2019-01-26T18:41:55.506Z,43.73
2019-01-26T18:44:58.705Z,42.30
2019-01-26T18:48:01.897Z,50.57
2019-01-26T18:51:05.091Z,51.20
2019-01-26T18:54:08.289Z,66.53
2019-01-26T18:57:11.386Z,64.87
2019-01-26T19:00:23.082Z,60.73
2019-01-26T19:03:31.034Z,53.03
2019-01-26T19:06:34.374Z,49.87
2019-01-26T19:09:37.617Z,50.93
2019-01-26T19:12:40.670Z,51.13
2019-01-26T19:15:45.026Z,47.63
2019-01-26T19:18:48.181Z,49.70
2019-01-26T19:21:51.534Z,43.93
2019-01-26T19:24:54.678Z,45.90
2019-01-26T19:27:59.150Z,42.63
2019-01-26T19:31:02.199Z,43.07
2019-01-26T19:34:05.745Z,37.30
2019-01-26T19:37:09.329Z,42.73
2019-01-26T19:40:16.223Z,44.90
2019-01-26T19:43:19.379Z,43.80
2019-01-26T19:46:22.513Z,37.13
2019-01-26T19:49:25.766Z,33.17
2019-01-26T19:52:29.016Z,41.00
2019-01-26T19:55:32.158Z,36.77
2019-01-26T19:58:35.390Z,45.90
2019-01-26T20:01:38.546Z,45.07
2019-01-26T20:04:41.778Z,46.17
2019-01-26T20:07:45.353Z,47.57
2019-01-26T20:10:53.792Z,42.40
2019-01-26T20:13:56.864Z,50.50
2019-01-26T20:17:07.458Z,48.10
2019-01-26T20:20:13.046Z,45.73
2019-01-26T20:23:24.690Z,53.13
2019-01-26T20:26:29.275Z,72.77
2019-01-26T20:29:32.439Z,68.20
2019-01-26T20:32:35.486Z,65.83
2019-01-26T20:35:38.918Z,43.97
2019-01-26T20:38:42.411Z,46.30
2019-01-26T20:41:45.565Z,48.17
2019-01-26T20:44:49.902Z,43.53
2019-01-26T20:47:53.098Z,42.90
2019-01-26T20:50:57.326Z,39.83
2019-01-26T20:54:00.416Z,35.13
2019-01-26T20:57:17.228Z,37.80
2019-01-26T21:00:23.359Z,37.03
2019-01-26T21:03:26.484Z,34.37
2019-01-26T21:06:29.580Z,29.80
2019-01-26T21:09:32.670Z,25.90
2019-01-26T21:12:35.763Z,26.33
2019-01-26T21:15:38.958Z,26.37
2019-01-26T21:18:42.161Z,24.60
2019-01-26T21:21:46.370Z,27.30
2019-01-26T21:24:49.466Z,25.37
2019-01-26T21:27:52.558Z,35.20
2019-01-26T21:30:56.674Z,24.93
2019-01-26T21:33:59.973Z,25.20
2019-01-26T21:37:03.162Z,19.07
2019-01-26T21:40:10.426Z,42.40
2019-01-26T21:43:13.556Z,18.30
2019-01-26T21:46:16.722Z,17.87
2019-01-26T21:49:19.942Z,18.53
2019-01-26T21:52:23.030Z,20.90
2019-01-26T21:55:26.226Z,20.00
2019-01-26T21:58:29.318Z,18.70
2019-01-26T22:01:32.415Z,20.37
2019-01-26T22:04:35.605Z,16.27
2019-01-26T22:07:38.869Z,17.97
2019-01-26T22:10:41.999Z,17.37
2019-01-26T22:13:45.135Z,19.40
2019-01-26T22:16:49.209Z,22.37
2019-01-26T22:19:52.451Z,23.07
2019-01-26T22:22:55.805Z,17.87
2019-01-26T22:25:59.454Z,20.57
2019-01-26T22:29:02.601Z,20.37
2019-01-26T22:32:06.143Z,21.37
2019-01-26T22:35:09.499Z,25.43
2019-01-26T22:38:12.733Z,24.40
2019-01-26T22:41:15.794Z,20.60
2019-01-26T22:44:19.139Z,21.00
2019-01-26T22:47:22.182Z,19.20
2019-01-26T22:50:25.842Z,21.07
2019-01-26T22:53:28.877Z,20.40
2019-01-26T22:56:32.010Z,19.50
2019-01-26T22:59:35.274Z,20.73
2019-01-26T23:02:38.406Z,20.10
2019-01-26T23:06:14.425Z,23.17
2019-01-26T23:09:44.151Z,23.20
2019-01-26T23:12:58.706Z,26.67
2019-01-26T23:16:48.393Z,27.20
2019-01-26T23:19:56.197Z,25.93
2019-01-26T23:23:53.256Z,28.23
2019-01-26T23:27:39.612Z,34.07
2019-01-26T23:31:11.014Z,34.50
2019-01-26T23:34:14.363Z,39.47
2019-01-26T23:37:17.410Z,44.40
2019-01-26T23:40:20.569Z,45.53
2019-01-26T23:43:23.694Z,46.37
2019-01-26T23:46:26.854Z,58.50
2019-01-26T23:49:30.083Z,52.30
2019-01-26T23:52:33.221Z,43.47
2019-01-26T23:55:36.270Z,47.73
2019-01-26T23:58:39.697Z,51.67
